Terminal Aerodrome Forecast
Issued by NWS Newport/Morehead City, NC

Home | Current Version | Previous Version | Text Only | Print | Product List | Glossary Off
Versions: 1 2 3 4 5 6 7 8 9 10 11 12 13 14 15

000
FTUS42 KMHX 300500
TAFEWN
TAF
KEWN 300521Z 3006/3106 20003KT P6SM VCSH OVC100
     FM300800 24008KT P6SM VCSH OVC050
     FM301400 31018G28KT P6SM SCT040
     FM302200 31012G18KT P6SM SKC=

USA.gov is the U.S. government's official web portal to all federal, state and local government web resources and services.